Terrace Bay, Canada
Current Conditions -  °F | °C
As of 8:00 PM on Thursday 18 Dec 2014 (Local Time) from CYGQ Reporting Station
Clear Clear  
Wind Chill:   Ceiling: Unl
Heat Index:   Visibility: 15mi
Dew Point: -4°   Wind: 2mph
Humidity: 85%   Direction: 240°WSW
Pressure: 30.26"   Gusts: NA
Location:  48.78°N, 87.1°W
Report Text: CYGQ 190100Z 24002KT 15SM SKC M18/M20 A3026 RMK SLP288
Loading
Personal Weather Stations






























Interactive Weather Map New forecast layout! Learn more

10-Day Weather Forecast

Advertisements
Track Severe Weather on mobile